Sierra, Nevada
Current Conditions -  °F | °C
As of 8:55 AM on Tuesday 27 Jan 2015 (Local Time) from KRTS Reporting Station
Broken Clouds Broken Clouds  
Wind Chill: 39°   Ceiling: 4800
Heat Index: 43°   Visibility: 10mi
Dew Point: 34°   Wind: 7mph
Humidity: 70%   Direction: 270°W
Pressure: 30.16"   Gusts: NA
Location:  39.7378°N, 119.889°W
Report Text: KRTS 271655Z AUTO 27006KT 10SM BKN048 BKN055 06/01 A3016 RMK AO2
Loading
Personal Weather Stations






























Interactive Weather Map New forecast layout! Learn more

10-Day Weather Forecast

Advertisements
Track Severe Weather on mobile